sensor_id;sensor_type;location;lat;lon;timestamp;temperature;humidity
48876;DHT22;34689;51.644;5.618;2023-05-14T00:00:54;17.10;99.90
48876;DHT22;34689;51.644;5.618;2023-05-14T00:03:19;17.10;99.90
48876;DHT22;34689;51.644;5.618;2023-05-14T00:05:45;17.10;99.90
48876;DHT22;34689;51.644;5.618;2023-05-14T00:08:11;17.00;99.90
48876;DHT22;34689;51.644;5.618;2023-05-14T00:10:36;17.00;99.90
48876;DHT22;34689;51.644;5.618;2023-05-14T00:13:02;17.00;99.90
48876;DHT22;34689;51.644;5.618;2023-05-14T00:15:28;16.90;99.90
48876;DHT22;34689;51.644;5.618;2023-05-14T00:17:56;16.90;99.90
48876;DHT22;34689;51.644;5.618;2023-05-14T00:20:22;16.90;99.90
48876;DHT22;34689;51.644;5.618;2023-05-14T00:22:48;16.80;99.90
48876;DHT22;34689;51.644;5.618;2023-05-14T00:25:13;16.80;99.90
48876;DHT22;34689;51.644;5.618;2023-05-14T00:27:39;16.70;99.90
48876;DHT22;34689;51.644;5.618;2023-05-14T00:30:05;16.70;99.90
48876;DHT22;34689;51.644;5.618;2023-05-14T00:32:32;16.70;99.90
48876;DHT22;34689;51.644;5.618;2023-05-14T00:34:57;16.70;99.90
48876;DHT22;34689;51.644;5.618;2023-05-14T00:37:23;16.60;99.90
48876;DHT22;34689;51.644;5.618;2023-05-14T00:39:49;16.60;99.90
48876;DHT22;34689;51.644;5.618;2023-05-14T00:42:14;16.60;99.90
48876;DHT22;34689;51.644;5.618;2023-05-14T00:44:40;16.50;99.90
48876;DHT22;34689;51.644;5.618;2023-05-14T00:47:06;16.50;99.90
48876;DHT22;34689;51.644;5.618;2023-05-14T00:49:33;16.50;99.90
48876;DHT22;34689;51.644;5.618;2023-05-14T00:51:58;16.50;99.90
48876;DHT22;34689;51.644;5.618;2023-05-14T00:54:25;16.50;99.90
48876;DHT22;34689;51.644;5.618;2023-05-14T00:56:52;16.40;99.90
48876;DHT22;34689;51.644;5.618;2023-05-14T00:59:18;16.40;99.90
48876;DHT22;34689;51.644;5.618;2023-05-14T01:01:43;16.40;99.90
48876;DHT22;34689;51.644;5.618;2023-05-14T01:04:10;16.40;99.90
48876;DHT22;34689;51.644;5.618;2023-05-14T01:09:24;16.30;99.90
48876;DHT22;34689;51.644;5.618;2023-05-14T01:17:10;16.20;99.90
48876;DHT22;34689;51.644;5.618;2023-05-14T01:19:42;16.20;99.90
48876;DHT22;34689;51.644;5.618;2023-05-14T01:22:09;16.20;99.90
48876;DHT22;34689;51.644;5.618;2023-05-14T01:24:35;16.20;99.90
48876;DHT22;34689;51.644;5.618;2023-05-14T01:29:55;16.10;99.90
48876;DHT22;34689;51.644;5.618;2023-05-14T01:32:26;16.00;99.90
48876;DHT22;34689;51.644;5.618;2023-05-14T01:34:54;16.00;99.90
48876;DHT22;34689;51.644;5.618;2023-05-14T01:37:23;16.00;99.90
48876;DHT22;34689;51.644;5.618;2023-05-14T01:39:51;16.00;99.90
48876;DHT22;34689;51.644;5.618;2023-05-14T01:42:17;16.00;99.90
48876;DHT22;34689;51.644;5.618;2023-05-14T01:44:48;15.90;99.90
48876;DHT22;34689;51.644;5.618;2023-05-14T01:47:14;15.90;99.90
48876;DHT22;34689;51.644;5.618;2023-05-14T01:49:42;15.80;99.90
48876;DHT22;34689;51.644;5.618;2023-05-14T01:52:09;15.80;99.90
48876;DHT22;34689;51.644;5.618;2023-05-14T01:54:35;15.80;99.90
48876;DHT22;34689;51.644;5.618;2023-05-14T01:57:00;15.80;99.90
48876;DHT22;34689;51.644;5.618;2023-05-14T01:59:26;15.70;99.90
48876;DHT22;34689;51.644;5.618;2023-05-14T02:01:54;15.70;99.90
48876;DHT22;34689;51.644;5.618;2023-05-14T02:04:22;15.70;99.90
48876;DHT22;34689;51.644;5.618;2023-05-14T02:06:47;15.70;99.90
48876;DHT22;34689;51.644;5.618;2023-05-14T02:09:13;15.60;99.90
48876;DHT22;34689;51.644;5.618;2023-05-14T02:11:39;15.60;99.90
48876;DHT22;34689;51.644;5.618;2023-05-14T02:14:07;15.60;99.90
48876;DHT22;34689;51.644;5.618;2023-05-14T02:16:32;15.50;99.90
48876;DHT22;34689;51.644;5.618;2023-05-14T02:18:58;15.50;99.90
48876;DHT22;34689;51.644;5.618;2023-05-14T02:21:23;15.50;99.90
48876;DHT22;34689;51.644;5.618;2023-05-14T02:23:49;15.50;99.90
48876;DHT22;34689;51.644;5.618;2023-05-14T02:26:15;15.50;99.90
48876;DHT22;34689;51.644;5.618;2023-05-14T02:28:41;15.50;99.90
48876;DHT22;34689;51.644;5.618;2023-05-14T02:31:09;15.50;99.90
48876;DHT22;34689;51.644;5.618;2023-05-14T02:33:34;15.50;99.90
48876;DHT22;34689;51.644;5.618;2023-05-14T02:36:00;15.50;99.90
48876;DHT22;34689;51.644;5.618;2023-05-14T02:38:26;15.50;99.90
48876;DHT22;34689;51.644;5.618;2023-05-14T02:40:54;15.40;99.90
48876;DHT22;34689;51.644;5.618;2023-05-14T02:43:22;15.50;99.90
48876;DHT22;34689;51.644;5.618;2023-05-14T02:45:48;15.40;99.90
48876;DHT22;34689;51.644;5.618;2023-05-14T02:48:14;15.40;99.90
48876;DHT22;34689;51.644;5.618;2023-05-14T02:50:43;15.40;99.90
48876;DHT22;34689;51.644;5.618;2023-05-14T02:53:08;15.40;99.90
48876;DHT22;34689;51.644;5.618;2023-05-14T02:55:34;15.30;99.90
48876;DHT22;34689;51.644;5.618;2023-05-14T02:58:00;15.30;99.90
48876;DHT22;34689;51.644;5.618;2023-05-14T03:00:26;15.30;99.90
48876;DHT22;34689;51.644;5.618;2023-05-14T03:02:52;15.30;99.90
48876;DHT22;34689;51.644;5.618;2023-05-14T03:05:17;15.20;99.90
48876;DHT22;34689;51.644;5.618;2023-05-14T03:07:43;15.20;99.90
48876;DHT22;34689;51.644;5.618;2023-05-14T03:10:09;15.20;99.90
48876;DHT22;34689;51.644;5.618;2023-05-14T03:12:35;15.10;99.90
48876;DHT22;34689;51.644;5.618;2023-05-14T03:15:00;15.10;99.90
48876;DHT22;34689;51.644;5.618;2023-05-14T03:17:26;15.10;99.90
48876;DHT22;34689;51.644;5.618;2023-05-14T03:19:52;15.00;99.90
48876;DHT22;34689;51.644;5.618;2023-05-14T03:22:17;15.00;99.90
48876;DHT22;34689;51.644;5.618;2023-05-14T03:24:43;14.90;99.90
48876;DHT22;34689;51.644;5.618;2023-05-14T03:27:09;14.90;99.90
48876;DHT22;34689;51.644;5.618;2023-05-14T03:29:34;14.90;99.90
48876;DHT22;34689;51.644;5.618;2023-05-14T03:32:00;14.80;99.90
48876;DHT22;34689;51.644;5.618;2023-05-14T03:34:26;14.80;99.90
48876;DHT22;34689;51.644;5.618;2023-05-14T03:36:51;14.70;99.90
48876;DHT22;34689;51.644;5.618;2023-05-14T03:39:17;14.70;99.90
48876;DHT22;34689;51.644;5.618;2023-05-14T03:41:46;14.70;99.90
48876;DHT22;34689;51.644;5.618;2023-05-14T03:44:12;14.70;99.90
48876;DHT22;34689;51.644;5.618;2023-05-14T03:46:37;14.70;99.90
48876;DHT22;34689;51.644;5.618;2023-05-14T03:49:03;14.70;99.90
48876;DHT22;34689;51.644;5.618;2023-05-14T03:51:29;14.60;99.90
48876;DHT22;34689;51.644;5.618;2023-05-14T03:53:56;14.60;99.90
48876;DHT22;34689;51.644;5.618;2023-05-14T03:56:23;14.60;99.90
48876;DHT22;34689;51.644;5.618;2023-05-14T03:58:51;14.60;99.90
48876;DHT22;34689;51.644;5.618;2023-05-14T04:01:17;14.60;99.90
48876;DHT22;34689;51.644;5.618;2023-05-14T04:03:43;14.60;99.90
48876;DHT22;34689;51.644;5.618;2023-05-14T04:06:08;14.50;99.90
48876;DHT22;34689;51.644;5.618;2023-05-14T04:08:34;14.50;99.90
48876;DHT22;34689;51.644;5.618;2023-05-14T04:11:03;14.50;99.90
48876;DHT22;34689;51.644;5.618;2023-05-14T04:13:29;14.50;99.90
48876;DHT22;34689;51.644;5.618;2023-05-14T04:15:54;14.50;99.90
48876;DHT22;34689;51.644;5.618;2023-05-14T04:18:20;14.40;99.90
48876;DHT22;34689;51.644;5.618;2023-05-14T04:20:46;14.40;99.90
48876;DHT22;34689;51.644;5.618;2023-05-14T04:23:11;14.40;99.90
48876;DHT22;34689;51.644;5.618;2023-05-14T04:25:40;14.40;99.90
48876;DHT22;34689;51.644;5.618;2023-05-14T04:28:06;14.40;99.90
48876;DHT22;34689;51.644;5.618;2023-05-14T04:30:32;14.40;99.90
48876;DHT22;34689;51.644;5.618;2023-05-14T04:33:00;14.40;99.90
48876;DHT22;34689;51.644;5.618;2023-05-14T04:35:26;14.40;99.90
48876;DHT22;34689;51.644;5.618;2023-05-14T04:37:54;14.40;99.90
48876;DHT22;34689;51.644;5.618;2023-05-14T04:40:22;14.40;99.90
48876;DHT22;34689;51.644;5.618;2023-05-14T04:42:48;14.40;99.90
48876;DHT22;34689;51.644;5.618;2023-05-14T04:45:14;14.40;99.90
48876;DHT22;34689;51.644;5.618;2023-05-14T04:47:43;14.30;99.90
48876;DHT22;34689;51.644;5.618;2023-05-14T04:50:09;14.40;99.90
48876;DHT22;34689;51.644;5.618;2023-05-14T04:52:35;14.40;99.90
48876;DHT22;34689;51.644;5.618;2023-05-14T04:55:01;14.40;99.90
48876;DHT22;34689;51.644;5.618;2023-05-14T04:57:26;14.30;99.90
48876;DHT22;34689;51.644;5.618;2023-05-14T04:59:54;14.40;99.90
48876;DHT22;34689;51.644;5.618;2023-05-14T05:02:20;14.40;99.90
48876;DHT22;34689;51.644;5.618;2023-05-14T05:04:46;14.30;99.90
48876;DHT22;34689;51.644;5.618;2023-05-14T05:07:11;14.40;99.90
48876;DHT22;34689;51.644;5.618;2023-05-14T05:09:38;14.30;99.90
48876;DHT22;34689;51.644;5.618;2023-05-14T05:12:04;14.30;99.90
48876;DHT22;34689;51.644;5.618;2023-05-14T05:14:29;14.30;99.90
48876;DHT22;34689;51.644;5.618;2023-05-14T05:16:57;14.30;99.90
48876;DHT22;34689;51.644;5.618;2023-05-14T05:19:23;14.30;99.90
48876;DHT22;34689;51.644;5.618;2023-05-14T05:21:49;14.30;99.90
48876;DHT22;34689;51.644;5.618;2023-05-14T05:24:18;14.30;99.90
48876;DHT22;34689;51.644;5.618;2023-05-14T05:26:43;14.30;99.90
48876;DHT22;34689;51.644;5.618;2023-05-14T05:29:09;14.20;99.90
48876;DHT22;34689;51.644;5.618;2023-05-14T05:31:35;14.20;99.90
48876;DHT22;34689;51.644;5.618;2023-05-14T05:34:02;14.20;99.90
48876;DHT22;34689;51.644;5.618;2023-05-14T05:36:28;14.30;99.90
48876;DHT22;34689;51.644;5.618;2023-05-14T05:38:54;14.30;99.90
48876;DHT22;34689;51.644;5.618;2023-05-14T05:41:20;14.30;99.90
48876;DHT22;34689;51.644;5.618;2023-05-14T05:43:48;14.40;99.90
48876;DHT22;34689;51.644;5.618;2023-05-14T05:46:14;14.40;99.90
48876;DHT22;34689;51.644;5.618;2023-05-14T05:48:40;14.40;99.90
48876;DHT22;34689;51.644;5.618;2023-05-14T05:51:06;14.40;99.90
48876;DHT22;34689;51.644;5.618;2023-05-14T05:53:31;14.40;99.90
48876;DHT22;34689;51.644;5.618;2023-05-14T05:55:57;14.40;99.90
48876;DHT22;34689;51.644;5.618;2023-05-14T05:58:22;14.40;99.90
48876;DHT22;34689;51.644;5.618;2023-05-14T06:00:48;14.50;99.90
48876;DHT22;34689;51.644;5.618;2023-05-14T06:03:16;14.50;99.90
48876;DHT22;34689;51.644;5.618;2023-05-14T06:05:42;14.50;99.90
48876;DHT22;34689;51.644;5.618;2023-05-14T06:08:10;14.50;99.90
48876;DHT22;34689;51.644;5.618;2023-05-14T06:10:36;14.50;99.90
48876;DHT22;34689;51.644;5.618;2023-05-14T06:13:02;14.50;99.90
48876;DHT22;34689;51.644;5.618;2023-05-14T06:15:27;14.60;99.90
48876;DHT22;34689;51.644;5.618;2023-05-14T06:17:53;14.70;99.90
48876;DHT22;34689;51.644;5.618;2023-05-14T06:20:18;14.70;99.90
48876;DHT22;34689;51.644;5.618;2023-05-14T06:22:44;14.70;99.90
48876;DHT22;34689;51.644;5.618;2023-05-14T06:25:10;14.80;99.90
48876;DHT22;34689;51.644;5.618;2023-05-14T06:27:36;14.80;99.90
48876;DHT22;34689;51.644;5.618;2023-05-14T06:30:01;14.80;99.90
48876;DHT22;34689;51.644;5.618;2023-05-14T06:32:27;14.80;99.90
48876;DHT22;34689;51.644;5.618;2023-05-14T06:34:53;14.80;99.90
48876;DHT22;34689;51.644;5.618;2023-05-14T06:37:18;14.80;99.90
48876;DHT22;34689;51.644;5.618;2023-05-14T06:39:44;14.90;99.90
48876;DHT22;34689;51.644;5.618;2023-05-14T06:42:17;14.90;99.90
48876;DHT22;34689;51.644;5.618;2023-05-14T06:44:43;14.90;99.90
48876;DHT22;34689;51.644;5.618;2023-05-14T06:47:11;15.00;99.90
48876;DHT22;34689;51.644;5.618;2023-05-14T06:49:37;15.00;99.90
48876;DHT22;34689;51.644;5.618;2023-05-14T06:52:03;15.00;99.90
48876;DHT22;34689;51.644;5.618;2023-05-14T06:54:29;15.00;99.90
48876;DHT22;34689;51.644;5.618;2023-05-14T06:56:58;15.00;99.90
48876;DHT22;34689;51.644;5.618;2023-05-14T06:59:24;15.10;99.90
48876;DHT22;34689;51.644;5.618;2023-05-14T07:01:49;15.20;99.90
48876;DHT22;34689;51.644;5.618;2023-05-14T07:04:15;15.20;99.90
48876;DHT22;34689;51.644;5.618;2023-05-14T07:06:40;15.20;99.90
48876;DHT22;34689;51.644;5.618;2023-05-14T07:09:06;15.30;99.90
48876;DHT22;34689;51.644;5.618;2023-05-14T07:11:32;15.20;99.90
48876;DHT22;34689;51.644;5.618;2023-05-14T07:13:58;15.30;99.90
48876;DHT22;34689;51.644;5.618;2023-05-14T07:16:24;15.40;99.90
48876;DHT22;34689;51.644;5.618;2023-05-14T07:18:50;15.40;99.90
48876;DHT22;34689;51.644;5.618;2023-05-14T07:21:16;15.40;99.90
48876;DHT22;34689;51.644;5.618;2023-05-14T07:23:42;15.40;99.90
48876;DHT22;34689;51.644;5.618;2023-05-14T07:26:10;15.40;99.90
48876;DHT22;34689;51.644;5.618;2023-05-14T07:28:36;15.50;99.90
48876;DHT22;34689;51.644;5.618;2023-05-14T07:31:04;15.50;99.90
48876;DHT22;34689;51.644;5.618;2023-05-14T07:33:36;15.60;99.90
48876;DHT22;34689;51.644;5.618;2023-05-14T07:36:02;15.60;99.90
48876;DHT22;34689;51.644;5.618;2023-05-14T07:38:30;15.60;99.90
48876;DHT22;34689;51.644;5.618;2023-05-14T07:40:57;15.60;99.90
48876;DHT22;34689;51.644;5.618;2023-05-14T07:43:22;15.70;99.90
48876;DHT22;34689;51.644;5.618;2023-05-14T07:45:48;15.70;99.90
48876;DHT22;34689;51.644;5.618;2023-05-14T07:48:16;15.70;99.90
48876;DHT22;34689;51.644;5.618;2023-05-14T07:50:42;15.70;99.90
48876;DHT22;34689;51.644;5.618;2023-05-14T07:53:07;15.80;99.90
48876;DHT22;34689;51.644;5.618;2023-05-14T07:55:33;15.80;99.90
48876;DHT22;34689;51.644;5.618;2023-05-14T07:57:59;15.90;99.90
48876;DHT22;34689;51.644;5.618;2023-05-14T08:00:27;15.90;99.90
48876;DHT22;34689;51.644;5.618;2023-05-14T08:02:56;15.90;99.90
48876;DHT22;34689;51.644;5.618;2023-05-14T08:05:21;16.00;99.90
48876;DHT22;34689;51.644;5.618;2023-05-14T08:07:47;16.10;99.90
48876;DHT22;34689;51.644;5.618;2023-05-14T08:10:13;16.10;99.90
48876;DHT22;34689;51.644;5.618;2023-05-14T08:12:38;16.10;99.90
48876;DHT22;34689;51.644;5.618;2023-05-14T08:15:05;16.20;99.90
48876;DHT22;34689;51.644;5.618;2023-05-14T08:17:34;16.20;99.90
48876;DHT22;34689;51.644;5.618;2023-05-14T08:20:02;16.30;99.90
48876;DHT22;34689;51.644;5.618;2023-05-14T08:22:30;16.30;99.90
48876;DHT22;34689;51.644;5.618;2023-05-14T08:24:56;16.30;99.90
48876;DHT22;34689;51.644;5.618;2023-05-14T08:27:22;16.30;99.90
48876;DHT22;34689;51.644;5.618;2023-05-14T08:29:47;16.40;99.90
48876;DHT22;34689;51.644;5.618;2023-05-14T08:32:13;16.40;99.90
48876;DHT22;34689;51.644;5.618;2023-05-14T08:34:39;16.50;99.90
48876;DHT22;34689;51.644;5.618;2023-05-14T08:37:06;16.50;99.90
48876;DHT22;34689;51.644;5.618;2023-05-14T08:39:35;16.60;99.90
48876;DHT22;34689;51.644;5.618;2023-05-14T08:42:01;16.60;99.90
48876;DHT22;34689;51.644;5.618;2023-05-14T08:45:07;16.60;99.90
48876;DHT22;34689;51.644;5.618;2023-05-14T08:47:25;16.60;99.90
48876;DHT22;34689;51.644;5.618;2023-05-14T08:50:06;16.60;99.90
48876;DHT22;34689;51.644;5.618;2023-05-14T08:52:33;16.60;99.90
48876;DHT22;34689;51.644;5.618;2023-05-14T08:55:01;16.70;99.90
48876;DHT22;34689;51.644;5.618;2023-05-14T08:57:28;16.70;99.90
48876;DHT22;34689;51.644;5.618;2023-05-14T08:59:58;16.80;99.90
48876;DHT22;34689;51.644;5.618;2023-05-14T09:02:27;16.80;99.90
48876;DHT22;34689;51.644;5.618;2023-05-14T09:04:58;16.90;99.90
48876;DHT22;34689;51.644;5.618;2023-05-14T09:07:27;17.00;99.90
48876;DHT22;34689;51.644;5.618;2023-05-14T09:09:53;17.10;99.90
48876;DHT22;34689;51.644;5.618;2023-05-14T09:12:19;17.10;99.90
48876;DHT22;34689;51.644;5.618;2023-05-14T09:14:47;17.20;99.90
48876;DHT22;34689;51.644;5.618;2023-05-14T09:17:14;17.30;99.90
48876;DHT22;34689;51.644;5.618;2023-05-14T09:19:41;17.40;99.90
48876;DHT22;34689;51.644;5.618;2023-05-14T09:22:12;17.50;99.90
48876;DHT22;34689;51.644;5.618;2023-05-14T09:24:38;17.50;99.90
48876;DHT22;34689;51.644;5.618;2023-05-14T09:27:05;17.60;99.90
48876;DHT22;34689;51.644;5.618;2023-05-14T09:29:34;17.70;99.90
48876;DHT22;34689;51.644;5.618;2023-05-14T09:32:01;17.70;99.90
48876;DHT22;34689;51.644;5.618;2023-05-14T09:34:33;17.80;99.90
48876;DHT22;34689;51.644;5.618;2023-05-14T09:39:28;17.90;99.90
48876;DHT22;34689;51.644;5.618;2023-05-14T09:41:54;18.00;99.90
48876;DHT22;34689;51.644;5.618;2023-05-14T09:44:24;18.10;99.90
48876;DHT22;34689;51.644;5.618;2023-05-14T09:46:52;18.20;99.90
48876;DHT22;34689;51.644;5.618;2023-05-14T09:49:19;18.30;99.90
48876;DHT22;34689;51.644;5.618;2023-05-14T09:51:45;18.30;99.90
48876;DHT22;34689;51.644;5.618;2023-05-14T09:54:11;18.50;99.90
48876;DHT22;34689;51.644;5.618;2023-05-14T09:56:37;18.60;99.90
48876;DHT22;34689;51.644;5.618;2023-05-14T09:59:06;18.70;99.90
48876;DHT22;34689;51.644;5.618;2023-05-14T10:01:34;18.90;99.90
48876;DHT22;34689;51.644;5.618;2023-05-14T10:04:02;19.10;99.90
48876;DHT22;34689;51.644;5.618;2023-05-14T10:06:36;19.60;99.90
48876;DHT22;34689;51.644;5.618;2023-05-14T10:09:07;21.00;99.90
48876;DHT22;34689;51.644;5.618;2023-05-14T10:11:38;22.90;99.90
48876;DHT22;34689;51.644;5.618;2023-05-14T10:14:23;24.40;99.90
48876;DHT22;34689;51.644;5.618;2023-05-14T10:16:49;25.30;99.70
48876;DHT22;34689;51.644;5.618;2023-05-14T10:19:19;26.10;96.70
48876;DHT22;34689;51.644;5.618;2023-05-14T10:21:55;26.80;96.20
48876;DHT22;34689;51.644;5.618;2023-05-14T10:24:24;26.90;94.30
48876;DHT22;34689;51.644;5.618;2023-05-14T10:26:51;26.80;94.00
48876;DHT22;34689;51.644;5.618;2023-05-14T10:29:17;26.20;94.30
48876;DHT22;34689;51.644;5.618;2023-05-14T10:31:51;25.40;96.10
48876;DHT22;34689;51.644;5.618;2023-05-14T10:34:40;24.60;97.30
48876;DHT22;34689;51.644;5.618;2023-05-14T10:37:17;23.90;98.10
48876;DHT22;34689;51.644;5.618;2023-05-14T10:40:03;23.70;99.90
48876;DHT22;34689;51.644;5.618;2023-05-14T10:42:34;23.50;99.90
48876;DHT22;34689;51.644;5.618;2023-05-14T10:45:17;23.40;99.90
48876;DHT22;34689;51.644;5.618;2023-05-14T10:47:48;23.40;99.90
48876;DHT22;34689;51.644;5.618;2023-05-14T10:50:14;23.40;99.90
48876;DHT22;34689;51.644;5.618;2023-05-14T10:52:44;23.40;99.60
48876;DHT22;34689;51.644;5.618;2023-05-14T10:55:15;23.30;99.50
48876;DHT22;34689;51.644;5.618;2023-05-14T10:57:44;23.30;99.70
48876;DHT22;34689;51.644;5.618;2023-05-14T11:00:11;23.20;99.80
48876;DHT22;34689;51.644;5.618;2023-05-14T11:02:38;23.20;99.40
48876;DHT22;34689;51.644;5.618;2023-05-14T11:05:06;23.10;99.30
48876;DHT22;34689;51.644;5.618;2023-05-14T11:07:38;23.10;99.00
48876;DHT22;34689;51.644;5.618;2023-05-14T11:12:31;23.00;98.80
48876;DHT22;34689;51.644;5.618;2023-05-14T11:14:58;23.00;98.70
48876;DHT22;34689;51.644;5.618;2023-05-14T11:17:31;23.10;98.10
48876;DHT22;34689;51.644;5.618;2023-05-14T11:20:00;23.00;98.00
48876;DHT22;34689;51.644;5.618;2023-05-14T11:22:28;23.00;97.90
48876;DHT22;34689;51.644;5.618;2023-05-14T11:24:54;23.00;97.90
48876;DHT22;34689;51.644;5.618;2023-05-14T11:27:21;23.00;98.00
48876;DHT22;34689;51.644;5.618;2023-05-14T11:29:51;23.00;97.90
48876;DHT22;34689;51.644;5.618;2023-05-14T11:32:21;23.00;97.60
48876;DHT22;34689;51.644;5.618;2023-05-14T11:34:46;22.90;97.70
48876;DHT22;34689;51.644;5.618;2023-05-14T11:37:15;22.90;98.00
48876;DHT22;34689;51.644;5.618;2023-05-14T11:39:49;23.00;97.80
48876;DHT22;34689;51.644;5.618;2023-05-14T11:42:18;23.00;97.50
48876;DHT22;34689;51.644;5.618;2023-05-14T11:44:51;23.00;97.60
48876;DHT22;34689;51.644;5.618;2023-05-14T11:47:21;23.10;97.10
48876;DHT22;34689;51.644;5.618;2023-05-14T11:49:47;23.20;97.10
48876;DHT22;34689;51.644;5.618;2023-05-14T11:52:16;23.10;96.90
48876;DHT22;34689;51.644;5.618;2023-05-14T11:54:46;23.20;96.70
48876;DHT22;34689;51.644;5.618;2023-05-14T11:57:18;23.20;96.70
48876;DHT22;34689;51.644;5.618;2023-05-14T11:59:46;23.20;96.30
48876;DHT22;34689;51.644;5.618;2023-05-14T12:02:14;23.20;95.90
48876;DHT22;34689;51.644;5.618;2023-05-14T12:04:48;23.20;95.70
48876;DHT22;34689;51.644;5.618;2023-05-14T12:07:15;23.30;95.30
48876;DHT22;34689;51.644;5.618;2023-05-14T12:09:44;23.40;94.70
48876;DHT22;34689;51.644;5.618;2023-05-14T12:12:22;23.30;94.70
48876;DHT22;34689;51.644;5.618;2023-05-14T12:14:49;23.30;94.30
48876;DHT22;34689;51.644;5.618;2023-05-14T12:17:19;23.40;94.20
48876;DHT22;34689;51.644;5.618;2023-05-14T12:19:49;23.40;93.90
48876;DHT22;34689;51.644;5.618;2023-05-14T12:22:21;23.40;93.90
48876;DHT22;34689;51.644;5.618;2023-05-14T12:25:00;23.40;94.20
48876;DHT22;34689;51.644;5.618;2023-05-14T12:27:26;23.20;94.50
48876;DHT22;34689;51.644;5.618;2023-05-14T12:30:02;23.30;94.70
48876;DHT22;34689;51.644;5.618;2023-05-14T12:32:31;23.30;93.80
48876;DHT22;34689;51.644;5.618;2023-05-14T12:34:57;23.30;93.50
48876;DHT22;34689;51.644;5.618;2023-05-14T12:37:23;23.30;94.00
48876;DHT22;34689;51.644;5.618;2023-05-14T12:39:49;23.20;93.90
48876;DHT22;34689;51.644;5.618;2023-05-14T12:42:17;23.10;93.70
48876;DHT22;34689;51.644;5.618;2023-05-14T12:44:43;23.00;93.80
48876;DHT22;34689;51.644;5.618;2023-05-14T12:47:08;22.90;94.10
48876;DHT22;34689;51.644;5.618;2023-05-14T12:49:37;22.90;94.40
48876;DHT22;34689;51.644;5.618;2023-05-14T12:52:03;22.80;94.50
48876;DHT22;34689;51.644;5.618;2023-05-14T12:54:29;22.70;94.40
48876;DHT22;34689;51.644;5.618;2023-05-14T12:56:56;22.70;94.70
48876;DHT22;34689;51.644;5.618;2023-05-14T12:59:22;22.60;94.90
48876;DHT22;34689;51.644;5.618;2023-05-14T13:01:48;22.50;95.00
48876;DHT22;34689;51.644;5.618;2023-05-14T13:04:16;22.40;95.00
48876;DHT22;34689;51.644;5.618;2023-05-14T13:06:42;22.30;95.40
48876;DHT22;34689;51.644;5.618;2023-05-14T13:09:10;22.20;95.30
48876;DHT22;34689;51.644;5.618;2023-05-14T13:11:39;22.10;95.60
48876;DHT22;34689;51.644;5.618;2023-05-14T13:14:07;22.00;95.80
48876;DHT22;34689;51.644;5.618;2023-05-14T13:16:33;22.00;95.80
48876;DHT22;34689;51.644;5.618;2023-05-14T13:18:59;22.00;95.80
48876;DHT22;34689;51.644;5.618;2023-05-14T13:21:24;22.00;95.70
48876;DHT22;34689;51.644;5.618;2023-05-14T13:23:53;22.10;94.70
48876;DHT22;34689;51.644;5.618;2023-05-14T13:26:21;22.20;94.30
48876;DHT22;34689;51.644;5.618;2023-05-14T13:28:50;22.20;93.50
48876;DHT22;34689;51.644;5.618;2023-05-14T13:31:15;22.20;93.70
48876;DHT22;34689;51.644;5.618;2023-05-14T13:33:43;22.30;94.00
48876;DHT22;34689;51.644;5.618;2023-05-14T13:36:10;22.20;94.30
48876;DHT22;34689;51.644;5.618;2023-05-14T13:38:36;22.20;94.50
48876;DHT22;34689;51.644;5.618;2023-05-14T13:41:03;22.20;94.60
48876;DHT22;34689;51.644;5.618;2023-05-14T13:43:32;22.10;94.70
48876;DHT22;34689;51.644;5.618;2023-05-14T13:45:57;22.10;94.70
48876;DHT22;34689;51.644;5.618;2023-05-14T13:48:24;22.10;94.80
48876;DHT22;34689;51.644;5.618;2023-05-14T13:50:50;22.20;94.80
48876;DHT22;34689;51.644;5.618;2023-05-14T13:53:20;22.20;94.60
48876;DHT22;34689;51.644;5.618;2023-05-14T13:55:46;22.20;94.50
48876;DHT22;34689;51.644;5.618;2023-05-14T13:58:12;22.20;94.70
48876;DHT22;34689;51.644;5.618;2023-05-14T14:00:41;22.20;94.60
48876;DHT22;34689;51.644;5.618;2023-05-14T14:03:09;22.10;94.70
48876;DHT22;34689;51.644;5.618;2023-05-14T14:05:35;22.10;94.80
48876;DHT22;34689;51.644;5.618;2023-05-14T14:08:03;22.10;94.80
48876;DHT22;34689;51.644;5.618;2023-05-14T14:10:29;22.00;94.80
48876;DHT22;34689;51.644;5.618;2023-05-14T14:12:55;22.00;94.80
48876;DHT22;34689;51.644;5.618;2023-05-14T14:15:20;21.90;94.80
48876;DHT22;34689;51.644;5.618;2023-05-14T14:17:49;21.90;94.90
48876;DHT22;34689;51.644;5.618;2023-05-14T14:20:16;21.90;94.90
48876;DHT22;34689;51.644;5.618;2023-05-14T14:22:45;21.90;94.90
48876;DHT22;34689;51.644;5.618;2023-05-14T14:25:11;21.90;94.80
48876;DHT22;34689;51.644;5.618;2023-05-14T14:27:38;21.80;94.90
48876;DHT22;34689;51.644;5.618;2023-05-14T14:30:09;21.80;95.10
48876;DHT22;34689;51.644;5.618;2023-05-14T14:32:45;21.80;95.00
48876;DHT22;34689;51.644;5.618;2023-05-14T14:35:12;21.70;94.90
48876;DHT22;34689;51.644;5.618;2023-05-14T14:37:41;21.70;95.00
48876;DHT22;34689;51.644;5.618;2023-05-14T14:40:12;21.70;94.90
48876;DHT22;34689;51.644;5.618;2023-05-14T14:42:38;21.70;94.60
48876;DHT22;34689;51.644;5.618;2023-05-14T14:45:04;21.60;94.60
48876;DHT22;34689;51.644;5.618;2023-05-14T14:47:30;21.60;94.50
48876;DHT22;34689;51.644;5.618;2023-05-14T14:49:58;21.60;94.30
48876;DHT22;34689;51.644;5.618;2023-05-14T14:52:25;21.50;94.30
48876;DHT22;34689;51.644;5.618;2023-05-14T14:54:50;21.50;94.40
48876;DHT22;34689;51.644;5.618;2023-05-14T14:57:16;21.40;94.10
48876;DHT22;34689;51.644;5.618;2023-05-14T14:59:42;21.40;93.80
48876;DHT22;34689;51.644;5.618;2023-05-14T15:02:08;21.40;94.00
48876;DHT22;34689;51.644;5.618;2023-05-14T15:04:37;21.40;94.00
48876;DHT22;34689;51.644;5.618;2023-05-14T15:07:03;21.30;93.60
48876;DHT22;34689;51.644;5.618;2023-05-14T15:09:30;21.30;93.90
48876;DHT22;34689;51.644;5.618;2023-05-14T15:11:56;21.20;94.00
48876;DHT22;34689;51.644;5.618;2023-05-14T15:14:22;21.20;94.10
48876;DHT22;34689;51.644;5.618;2023-05-14T15:16:50;21.20;94.20
48876;DHT22;34689;51.644;5.618;2023-05-14T15:19:17;21.20;94.30
48876;DHT22;34689;51.644;5.618;2023-05-14T15:21:43;21.20;94.40
48876;DHT22;34689;51.644;5.618;2023-05-14T15:24:14;21.20;94.50
48876;DHT22;34689;51.644;5.618;2023-05-14T15:26:40;21.20;94.50
48876;DHT22;34689;51.644;5.618;2023-05-14T15:29:09;21.20;94.50
48876;DHT22;34689;51.644;5.618;2023-05-14T15:31:37;21.20;94.40
48876;DHT22;34689;51.644;5.618;2023-05-14T15:34:05;21.20;94.60
48876;DHT22;34689;51.644;5.618;2023-05-14T15:36:31;21.20;94.50
48876;DHT22;34689;51.644;5.618;2023-05-14T15:39:00;21.20;94.60
48876;DHT22;34689;51.644;5.618;2023-05-14T15:41:25;21.20;94.70
48876;DHT22;34689;51.644;5.618;2023-05-14T15:43:55;21.30;94.70
48876;DHT22;34689;51.644;5.618;2023-05-14T15:46:22;21.20;94.80